createdAt,value
2024-01-12T00:00:27.176Z,11.13
2024-01-12T00:01:13.584Z,11.98
2024-01-12T00:01:57.148Z,8.68
2024-01-12T00:02:41.370Z,10.35
2024-01-12T00:03:23.846Z,11.02
2024-01-12T00:04:07.270Z,12.13
2024-01-12T00:04:49.800Z,9.55
2024-01-12T00:05:32.350Z,13.40
2024-01-12T00:06:15.905Z,11.75
2024-01-12T00:06:58.397Z,9.30
2024-01-12T00:07:40.918Z,10.95
2024-01-12T00:08:23.389Z,9.82
2024-01-12T00:09:06.861Z,10.05
2024-01-12T00:09:49.296Z,10.30
2024-01-12T00:10:32.881Z,9.63
2024-01-12T00:11:16.401Z,10.27
2024-01-12T00:11:58.936Z,15.50
2024-01-12T00:12:41.509Z,11.27
2024-01-12T00:13:24.971Z,11.18
2024-01-12T00:14:07.427Z,14.13
2024-01-12T00:14:49.938Z,9.77
2024-01-12T00:15:33.515Z,8.38
2024-01-12T00:16:17.378Z,10.27
2024-01-12T00:16:59.820Z,10.23
2024-01-12T00:17:43.327Z,8.82
2024-01-12T00:18:26.022Z,10.10
2024-01-12T00:19:08.501Z,11.82
2024-01-12T00:19:51.896Z,10.82
2024-01-12T00:20:35.233Z,9.45
2024-01-12T00:21:17.748Z,10.63
2024-01-12T00:22:01.200Z,11.20
2024-01-12T00:22:43.656Z,10.30
2024-01-12T00:23:27.024Z,8.65
2024-01-12T00:24:09.470Z,10.25
2024-01-12T00:24:52.954Z,10.95
2024-01-12T00:25:35.357Z,9.60
2024-01-12T00:26:17.814Z,9.60
2024-01-12T00:27:01.341Z,6.95
2024-01-12T00:27:43.803Z,9.70
2024-01-12T00:28:27.962Z,9.77
2024-01-12T00:29:11.901Z,8.65
2024-01-12T00:29:54.451Z,7.82
2024-01-12T00:30:37.109Z,9.65
2024-01-12T00:31:21.932Z,9.27
2024-01-12T00:32:06.369Z,8.88
2024-01-12T00:32:48.932Z,12.88
2024-01-12T00:33:33.454Z,10.57
2024-01-12T00:34:16.107Z,12.63
2024-01-12T00:34:58.835Z,8.88
2024-01-12T00:35:42.436Z,6.85
2024-01-12T00:36:26.062Z,7.97
2024-01-12T00:37:09.617Z,6.75
2024-01-12T00:37:53.052Z,8.93
2024-01-12T00:38:35.529Z,8.50
2024-01-12T00:39:18.385Z,9.55
2024-01-12T00:40:01.842Z,7.00
2024-01-12T00:40:44.765Z,11.45
2024-01-12T00:41:27.289Z,7.35
2024-01-12T00:42:10.747Z,8.30
2024-01-12T00:42:53.178Z,10.05
2024-01-12T00:43:35.715Z,6.88
2024-01-12T00:44:20.071Z,9.80
2024-01-12T00:45:03.085Z,10.57
2024-01-12T00:45:45.613Z,7.43
2024-01-12T00:46:30.384Z,11.93
2024-01-12T00:47:12.817Z,9.23
2024-01-12T00:47:55.540Z,8.18
2024-01-12T00:48:39.367Z,8.68
2024-01-12T00:49:22.412Z,10.35
2024-01-12T00:50:05.620Z,9.25
2024-01-12T00:50:49.248Z,9.65
2024-01-12T00:51:31.790Z,8.43
2024-01-12T00:52:15.219Z,8.15
2024-01-12T00:52:57.671Z,9.70
2024-01-12T00:53:40.135Z,10.85
2024-01-12T00:54:28.421Z,9.88
2024-01-12T00:55:11.069Z,10.23
2024-01-12T00:55:54.135Z,8.32
2024-01-12T00:56:38.053Z,7.65
2024-01-12T00:57:20.557Z,7.00
2024-01-12T00:58:03.089Z,8.25
2024-01-12T00:58:46.567Z,10.18
2024-01-12T00:59:29.050Z,9.75
2024-01-12T01:00:12.467Z,8.55
2024-01-12T01:00:55.977Z,8.07
2024-01-12T01:01:39.800Z,11.77
2024-01-12T01:02:22.248Z,8.23
2024-01-12T01:03:07.284Z,7.20
2024-01-12T01:03:52.206Z,6.60
2024-01-12T01:04:34.665Z,8.20
2024-01-12T01:05:17.185Z,8.50
2024-01-12T01:06:00.771Z,13.05
2024-01-12T01:06:43.280Z,8.95
2024-01-12T01:07:25.715Z,8.05
2024-01-12T01:08:09.196Z,8.50
2024-01-12T01:08:54.539Z,7.40
2024-01-12T01:09:37.040Z,11.35
2024-01-12T01:10:20.465Z,7.78
2024-01-12T01:11:03.430Z,11.43
2024-01-12T01:11:45.980Z,9.98
2024-01-12T01:12:29.442Z,8.50
2024-01-12T01:13:11.945Z,9.57
2024-01-12T01:13:54.493Z,7.28
2024-01-12T01:14:38.164Z,8.40
2024-01-12T01:15:20.949Z,8.18
2024-01-12T01:16:03.872Z,8.85
2024-01-12T01:16:48.731Z,9.48
2024-01-12T01:17:31.758Z,9.32
2024-01-12T01:18:14.928Z,7.60
2024-01-12T01:18:58.556Z,7.70
2024-01-12T01:19:41.229Z,9.30
2024-01-12T01:20:23.856Z,8.77
2024-01-12T01:21:07.429Z,8.05
2024-01-12T01:21:50.166Z,6.65
2024-01-12T01:22:34.751Z,7.07
2024-01-12T01:23:19.192Z,10.02
2024-01-12T01:24:02.334Z,7.50
2024-01-12T01:24:44.884Z,9.73
2024-01-12T01:25:28.367Z,9.73
2024-01-12T01:26:10.812Z,9.88
2024-01-12T01:26:53.343Z,9.38
2024-01-12T01:27:36.826Z,9.40
2024-01-12T01:28:19.416Z,9.80
2024-01-12T01:29:02.045Z,7.47
2024-01-12T01:29:45.553Z,6.55
2024-01-12T01:30:28.064Z,7.40
2024-01-12T01:31:11.154Z,9.75
2024-01-12T01:31:56.122Z,7.90
2024-01-12T01:32:38.680Z,8.82
2024-01-12T01:33:21.361Z,9.52
2024-01-12T01:34:05.116Z,9.25
2024-01-12T01:34:47.812Z,10.68
2024-01-12T01:35:30.444Z,8.82
2024-01-12T01:36:13.920Z,9.60
2024-01-12T01:37:02.994Z,7.72
2024-01-12T01:37:45.656Z,8.40
2024-01-12T01:38:29.170Z,6.05
2024-01-12T01:39:11.651Z,9.13
2024-01-12T01:39:54.136Z,9.70
2024-01-12T01:40:37.582Z,7.20
2024-01-12T01:41:20.080Z,11.60
2024-01-12T01:42:02.926Z,10.05
2024-01-12T01:42:49.690Z,10.82
2024-01-12T01:43:32.271Z,7.65
2024-01-12T01:44:14.726Z,8.88
2024-01-12T01:44:58.480Z,10.27
2024-01-12T01:45:41.121Z,8.48
2024-01-12T01:46:23.859Z,11.30
2024-01-12T01:47:09.134Z,8.68
2024-01-12T01:47:51.752Z,9.57
2024-01-12T01:48:34.581Z,7.82
2024-01-12T01:49:18.128Z,9.63
2024-01-12T01:50:00.589Z,10.18
2024-01-12T01:50:44.623Z,11.23
2024-01-12T01:51:28.270Z,10.73
2024-01-12T01:52:11.160Z,8.23
2024-01-12T01:52:53.958Z,8.10
2024-01-12T01:53:37.438Z,9.13
2024-01-12T01:54:20.615Z,8.60
2024-01-12T01:55:03.308Z,10.30
2024-01-12T01:55:47.267Z,8.88
2024-01-12T01:56:29.826Z,9.60
2024-01-12T01:57:12.553Z,9.45
2024-01-12T01:57:55.999Z,11.05
2024-01-12T01:58:38.491Z,9.38
2024-01-12T01:59:20.947Z,10.52
2024-01-12T02:00:04.089Z,10.98
2024-01-12T02:00:49.465Z,10.15
2024-01-12T02:01:32.135Z,11.75
2024-01-12T02:02:16.040Z,13.07
2024-01-12T02:02:59.726Z,10.45
2024-01-12T02:03:42.409Z,10.32
2024-01-12T02:04:24.947Z,11.20
2024-01-12T02:05:12.707Z,11.35
2024-01-12T02:05:57.936Z,12.65
2024-01-12T02:06:41.387Z,12.40
2024-01-12T02:07:24.966Z,10.57
2024-01-12T02:08:07.572Z,9.25
2024-01-12T02:08:51.337Z,9.80
2024-01-12T02:09:35.288Z,10.52
2024-01-12T02:10:18.690Z,12.15
2024-01-12T02:11:01.154Z,11.57
2024-01-12T02:11:44.644Z,11.00
2024-01-12T02:12:28.227Z,11.15
2024-01-12T02:13:10.760Z,10.27
2024-01-12T02:13:54.272Z,10.88
2024-01-12T02:14:36.999Z,12.57
2024-01-12T02:15:20.539Z,7.45
2024-01-12T02:16:04.756Z,10.23
2024-01-12T02:16:49.373Z,11.32
2024-01-12T02:17:34.386Z,11.70
2024-01-12T02:18:17.086Z,8.15
2024-01-12T02:18:59.701Z,9.80
2024-01-12T02:19:43.313Z,12.50
2024-01-12T02:20:26.031Z,11.10
2024-01-12T02:21:09.958Z,9.68
2024-01-12T02:21:53.428Z,7.50
2024-01-12T02:22:35.856Z,11.27
2024-01-12T02:23:18.337Z,10.55
2024-01-12T02:24:02.004Z,10.52
2024-01-12T02:24:44.464Z,9.32
2024-01-12T02:25:27.794Z,10.75
2024-01-12T02:26:11.291Z,9.55
2024-01-12T02:26:53.905Z,7.90
2024-01-12T02:27:36.462Z,11.13
2024-01-12T02:28:20.395Z,10.13
2024-01-12T02:29:04.289Z,10.10
2024-01-12T02:29:48.113Z,12.18
2024-01-12T02:30:32.470Z,11.70
2024-01-12T02:31:15.054Z,10.95
2024-01-12T02:31:57.545Z,12.40
2024-01-12T02:32:40.989Z,8.98
2024-01-12T02:33:23.469Z,10.70
2024-01-12T02:34:06.021Z,8.57
2024-01-12T02:34:49.509Z,10.40
2024-01-12T02:35:32.001Z,12.27
2024-01-12T02:36:16.053Z,8.90
2024-01-12T02:36:59.465Z,10.88
2024-01-12T02:37:41.895Z,8.88
2024-01-12T02:38:24.442Z,9.15
2024-01-12T02:39:08.004Z,9.82
2024-01-12T02:39:50.455Z,11.57
2024-01-12T02:40:33.021Z,10.35
2024-01-12T02:41:16.556Z,8.00
2024-01-12T02:41:59.235Z,12.40
2024-01-12T02:42:42.815Z,8.43
2024-01-12T02:43:25.324Z,11.60
2024-01-12T02:44:07.795Z,11.60
2024-01-12T02:44:51.300Z,9.90
2024-01-12T02:45:33.871Z,10.07
2024-01-12T02:46:16.319Z,11.38
2024-01-12T02:46:59.826Z,9.80
2024-01-12T02:47:42.955Z,14.02
2024-01-12T02:48:25.578Z,8.95
2024-01-12T02:49:09.422Z,10.15
2024-01-12T02:49:51.946Z,8.38
2024-01-12T02:50:34.487Z,11.50
2024-01-12T02:51:19.355Z,9.75
2024-01-12T02:52:02.071Z,12.05
2024-01-12T02:52:44.615Z,11.40
2024-01-12T02:53:28.091Z,8.85
2024-01-12T02:54:10.634Z,10.15
2024-01-12T02:54:54.068Z,11.45
2024-01-12T02:55:36.532Z,11.23
2024-01-12T02:56:19.096Z,8.70
2024-01-12T02:57:01.734Z,11.52
2024-01-12T02:57:45.440Z,11.35
2024-01-12T02:58:27.941Z,11.57
2024-01-12T02:59:10.460Z,10.82
2024-01-12T02:59:53.910Z,13.48
2024-01-12T03:00:36.462Z,12.60
2024-01-12T03:01:20.244Z,8.77
2024-01-12T03:02:03.785Z,10.32
2024-01-12T03:02:46.423Z,9.73
2024-01-12T03:03:29.000Z,11.18
2024-01-12T03:04:12.571Z,11.00
2024-01-12T03:04:55.135Z,12.15
2024-01-12T03:05:37.806Z,10.73
2024-01-12T03:06:22.897Z,9.57
2024-01-12T03:07:07.855Z,11.32
2024-01-12T03:07:50.461Z,10.85
2024-01-12T03:08:33.932Z,8.25
2024-01-12T03:09:16.370Z,11.65
2024-01-12T03:10:00.034Z,12.98
2024-01-12T03:10:43.539Z,12.15
2024-01-12T03:11:26.053Z,10.55
2024-01-12T03:12:09.854Z,8.88
2024-01-12T03:12:53.296Z,9.35
2024-01-12T03:13:36.454Z,8.95
2024-01-12T03:14:19.082Z,10.55
2024-01-12T03:15:02.546Z,9.85
2024-01-12T03:15:45.226Z,11.50
2024-01-12T03:16:28.722Z,11.95
2024-01-12T03:17:12.859Z,10.13
2024-01-12T03:17:57.190Z,9.30
2024-01-12T03:18:39.952Z,10.45
2024-01-12T03:19:23.627Z,8.93
2024-01-12T03:20:07.540Z,11.52
2024-01-12T03:20:50.055Z,12.52
2024-01-12T03:21:34.900Z,9.68
2024-01-12T03:22:17.435Z,11.68
2024-01-12T03:23:00.051Z,10.07
2024-01-12T03:23:43.518Z,12.23
2024-01-12T03:24:26.028Z,11.73
2024-01-12T03:25:08.648Z,10.55
2024-01-12T03:25:52.137Z,8.35
2024-01-12T03:26:37.768Z,10.55
2024-01-12T03:27:25.432Z,10.10
2024-01-12T03:28:09.865Z,9.88
2024-01-12T03:28:52.323Z,11.55
2024-01-12T03:29:34.878Z,11.60
2024-01-12T03:30:17.839Z,10.52
2024-01-12T03:31:01.422Z,12.30
2024-01-12T03:31:43.904Z,10.25
2024-01-12T03:32:26.518Z,10.68
2024-01-12T03:33:10.530Z,10.23
2024-01-12T03:33:53.380Z,10.27
2024-01-12T03:34:36.015Z,11.82
2024-01-12T03:35:19.507Z,12.90
2024-01-12T03:36:06.325Z,8.63
2024-01-12T03:36:50.185Z,10.30
2024-01-12T03:37:33.603Z,10.50
2024-01-12T03:38:16.115Z,15.02
2024-01-12T03:38:58.721Z,11.65
2024-01-12T03:39:42.406Z,14.20
2024-01-12T03:40:24.828Z,10.50
2024-01-12T03:41:07.581Z,10.90
2024-01-12T03:41:51.336Z,11.48
2024-01-12T03:42:34.020Z,11.55
2024-01-12T03:43:16.499Z,9.65
2024-01-12T03:43:59.998Z,9.50
2024-01-12T03:44:42.497Z,9.68
2024-01-12T03:45:25.041Z,10.40
2024-01-12T03:46:08.612Z,10.32
2024-01-12T03:46:51.041Z,9.70
2024-01-12T03:47:33.621Z,9.15
2024-01-12T03:48:17.322Z,8.27
2024-01-12T03:48:59.941Z,7.78
2024-01-12T03:49:43.075Z,7.82
2024-01-12T03:50:26.700Z,6.70
2024-01-12T03:51:09.216Z,8.40
2024-01-12T03:51:55.165Z,10.20
2024-01-12T03:52:38.729Z,10.68
2024-01-12T03:53:21.212Z,10.73
2024-01-12T03:54:03.803Z,9.07
2024-01-12T03:54:47.283Z,10.02
2024-01-12T03:55:29.717Z,10.65
2024-01-12T03:56:12.225Z,10.48
2024-01-12T03:56:55.944Z,10.65
2024-01-12T03:57:38.503Z,9.25
2024-01-12T03:58:20.973Z,8.38
2024-01-12T03:59:04.464Z,8.77
2024-01-12T03:59:47.645Z,8.27
2024-01-12T04:00:30.193Z,8.27
2024-01-12T04:01:14.169Z,12.95
2024-01-12T04:01:56.957Z,10.07
2024-01-12T04:02:39.489Z,10.88
2024-01-12T04:03:22.951Z,11.13
2024-01-12T04:04:06.760Z,11.68
2024-01-12T04:04:49.305Z,9.18
2024-01-12T04:05:32.942Z,9.68
2024-01-12T04:06:15.557Z,9.55
2024-01-12T04:06:59.566Z,9.20
2024-01-12T04:07:45.443Z,11.85
2024-01-12T04:09:10.998Z,14.02
2024-01-12T04:09:54.460Z,9.82
2024-01-12T04:10:37.478Z,10.40
2024-01-12T04:11:23.442Z,8.55
2024-01-12T04:12:07.556Z,12.73
2024-01-12T04:12:50.168Z,11.13
2024-01-12T04:13:32.665Z,11.63
2024-01-12T04:14:16.250Z,9.50
2024-01-12T04:14:58.802Z,8.45
2024-01-12T04:15:41.862Z,9.15
2024-01-12T04:16:25.289Z,9.98
2024-01-12T04:17:07.746Z,9.50
2024-01-12T04:17:50.502Z,10.90
2024-01-12T04:18:35.519Z,10.27
2024-01-12T04:19:18.339Z,10.10
2024-01-12T04:20:00.866Z,11.77
2024-01-12T04:20:44.399Z,8.20
2024-01-12T04:21:27.151Z,10.77
2024-01-12T04:22:10.993Z,9.82
2024-01-12T04:22:54.462Z,11.00
2024-01-12T04:23:36.952Z,16.95
2024-01-12T04:24:19.466Z,11.05
2024-01-12T04:25:02.974Z,9.85
2024-01-12T04:25:45.492Z,8.80
2024-01-12T04:26:28.012Z,10.93
2024-01-12T04:27:11.644Z,7.75
2024-01-12T04:27:54.253Z,7.55
2024-01-12T04:28:36.718Z,10.27
2024-01-12T04:29:20.430Z,11.68
2024-01-12T04:30:03.154Z,13.02
2024-01-12T04:30:45.647Z,8.55
2024-01-12T04:31:29.198Z,10.25
2024-01-12T04:32:11.697Z,10.60
2024-01-12T04:32:56.828Z,10.25
2024-01-12T04:33:39.607Z,11.15
2024-01-12T04:34:22.268Z,11.43
2024-01-12T04:35:06.279Z,11.13
2024-01-12T04:35:48.769Z,8.57
2024-01-12T04:36:32.284Z,10.32
2024-01-12T04:37:16.151Z,10.27
2024-01-12T04:38:00.237Z,8.85
2024-01-12T04:38:43.743Z,9.48
2024-01-12T04:39:26.209Z,10.77
2024-01-12T04:40:09.323Z,11.75
2024-01-12T04:40:52.868Z,8.48
2024-01-12T04:41:35.376Z,12.85
2024-01-12T04:42:17.874Z,10.70
2024-01-12T04:43:01.341Z,8.32
2024-01-12T04:43:43.800Z,13.05
2024-01-12T04:44:26.480Z,7.93
2024-01-12T04:45:10.583Z,8.60
2024-01-12T04:45:53.160Z,10.98
2024-01-12T04:46:35.613Z,9.02
2024-01-12T04:47:19.172Z,10.25
2024-01-12T04:48:01.972Z,11.45
2024-01-12T04:48:44.653Z,8.73
2024-01-12T04:49:28.199Z,9.38
2024-01-12T04:50:10.866Z,8.60
2024-01-12T04:50:53.386Z,8.65
2024-01-12T04:51:36.902Z,10.48
2024-01-12T04:52:20.838Z,9.30
2024-01-12T04:53:03.465Z,7.90
2024-01-12T04:53:47.101Z,8.50
2024-01-12T04:54:29.618Z,11.98
2024-01-12T04:55:12.055Z,8.93
2024-01-12T04:55:55.507Z,9.82
2024-01-12T04:56:38.052Z,8.93
2024-01-12T04:57:20.574Z,8.15
2024-01-12T04:58:04.466Z,7.47
2024-01-12T04:58:47.011Z,8.07
2024-01-12T04:59:29.526Z,8.00
2024-01-12T05:00:14.176Z,8.30
2024-01-12T05:00:56.736Z,9.13
2024-01-12T05:01:39.273Z,11.52
2024-01-12T05:02:22.796Z,8.82
2024-01-12T05:03:05.874Z,10.25
2024-01-12T05:03:48.633Z,10.30
2024-01-12T05:04:32.173Z,7.10
2024-01-12T05:05:14.833Z,11.85
2024-01-12T05:05:57.409Z,8.98
2024-01-12T05:06:41.206Z,9.05
2024-01-12T05:07:25.080Z,8.85
2024-01-12T05:08:10.168Z,9.20
2024-01-12T05:08:53.612Z,9.82
2024-01-12T05:09:36.136Z,7.05
2024-01-12T05:10:18.717Z,9.73
2024-01-12T05:11:02.185Z,10.70
2024-01-12T05:11:44.682Z,11.57
2024-01-12T05:12:27.187Z,11.15
2024-01-12T05:13:12.280Z,8.55
2024-01-12T05:13:54.793Z,6.78
2024-01-12T05:14:37.371Z,7.57
2024-01-12T05:15:20.786Z,10.93
2024-01-12T05:16:03.310Z,17.35
2024-01-12T05:16:45.764Z,10.15
2024-01-12T05:17:28.420Z,8.40
2024-01-12T05:18:12.042Z,9.18
2024-01-12T05:18:54.886Z,8.75
2024-01-12T05:19:37.539Z,7.53
2024-01-12T05:20:22.732Z,10.13
2024-01-12T05:21:05.582Z,6.63
2024-01-12T05:21:48.102Z,8.73
2024-01-12T05:22:32.870Z,8.10
2024-01-12T05:23:15.345Z,10.00
2024-01-12T05:23:57.879Z,6.40
2024-01-12T05:24:41.368Z,7.05
2024-01-12T05:25:23.890Z,7.97
2024-01-12T05:26:06.468Z,7.40
2024-01-12T05:26:50.048Z,9.98
2024-01-12T05:27:32.600Z,9.35
2024-01-12T05:28:15.150Z,7.85
2024-01-12T05:28:58.730Z,8.13
2024-01-12T05:29:41.246Z,9.75
2024-01-12T05:30:23.829Z,9.88
2024-01-12T05:31:07.403Z,9.05
2024-01-12T05:31:49.962Z,7.32
2024-01-12T05:32:32.630Z,8.65
2024-01-12T05:33:16.625Z,9.55
2024-01-12T05:34:04.359Z,9.43
2024-01-12T05:34:47.225Z,10.02
2024-01-12T05:35:30.726Z,11.15
2024-01-12T05:36:13.292Z,11.38
2024-01-12T05:36:55.782Z,11.60
2024-01-12T05:37:40.605Z,10.95
2024-01-12T05:38:23.107Z,8.00
2024-01-12T05:39:08.774Z,9.77
2024-01-12T05:39:52.858Z,11.30
2024-01-12T05:40:35.339Z,8.75
2024-01-12T05:41:17.881Z,12.95
2024-01-12T05:42:01.475Z,10.35
2024-01-12T05:42:44.023Z,10.02
2024-01-12T05:43:26.630Z,10.65
2024-01-12T05:44:10.203Z,7.32
2024-01-12T05:44:52.648Z,10.88
2024-01-12T05:45:35.132Z,9.93
2024-01-12T05:46:20.406Z,7.85
2024-01-12T05:47:02.897Z,8.05
2024-01-12T05:47:45.565Z,10.85
2024-01-12T05:48:29.417Z,9.50
2024-01-12T05:49:12.345Z,10.60
2024-01-12T05:49:54.887Z,9.50
2024-01-12T05:50:38.379Z,10.40
2024-01-12T05:51:20.972Z,9.98
2024-01-12T05:52:04.273Z,9.27
2024-01-12T05:52:50.468Z,10.48
2024-01-12T05:54:16.010Z,8.57
2024-01-12T05:55:01.887Z,12.50
2024-01-12T05:56:26.706Z,7.40
2024-01-12T05:57:10.222Z,7.68
2024-01-12T05:57:52.781Z,10.20
2024-01-12T05:58:35.342Z,8.55
2024-01-12T05:59:18.849Z,8.18
2024-01-12T06:00:03.427Z,10.38
2024-01-12T06:00:45.989Z,10.70
2024-01-12T06:01:29.907Z,12.98
2024-01-12T06:02:15.523Z,9.05
2024-01-12T06:02:59.143Z,7.38
2024-01-12T06:03:41.883Z,10.00
2024-01-12T06:04:25.382Z,7.97
2024-01-12T06:05:08.530Z,9.63
2024-01-12T06:05:52.933Z,7.60
2024-01-12T06:06:36.571Z,8.57
2024-01-12T06:07:19.098Z,11.43
2024-01-12T06:08:02.990Z,9.73
2024-01-12T06:08:46.665Z,8.88
2024-01-12T06:09:31.605Z,6.53
2024-01-12T06:10:14.144Z,7.15
2024-01-12T06:10:57.616Z,9.98
2024-01-12T06:11:43.670Z,10.63
2024-01-12T06:12:26.270Z,7.72
2024-01-12T06:13:09.830Z,9.88
2024-01-12T06:13:52.297Z,7.82
2024-01-12T06:14:34.815Z,9.52
2024-01-12T06:15:18.276Z,8.05
2024-01-12T06:16:00.744Z,9.43
2024-01-12T06:16:43.228Z,8.05
2024-01-12T06:17:26.834Z,9.07
2024-01-12T06:18:09.409Z,10.93
2024-01-12T06:18:52.794Z,10.05
2024-01-12T06:19:36.433Z,9.82
2024-01-12T06:20:18.987Z,11.45
2024-01-12T06:21:01.587Z,10.52
2024-01-12T06:21:45.146Z,8.13
2024-01-12T06:22:27.802Z,10.30
2024-01-12T06:23:11.658Z,5.93
2024-01-12T06:23:55.206Z,8.27
2024-01-12T06:24:47.021Z,10.20
2024-01-12T06:25:30.449Z,8.45
2024-01-12T06:26:13.908Z,9.25
2024-01-12T06:26:56.382Z,7.03
2024-01-12T06:27:39.076Z,5.50
2024-01-12T06:28:22.607Z,7.10
2024-01-12T06:29:05.141Z,6.07
2024-01-12T06:29:47.693Z,7.30
2024-01-12T06:30:32.460Z,9.15
2024-01-12T06:31:15.153Z,7.85
2024-01-12T06:31:57.729Z,8.23
2024-01-12T06:32:41.376Z,6.60
2024-01-12T06:33:24.255Z,9.10
2024-01-12T06:34:06.880Z,8.10
2024-01-12T06:34:51.184Z,8.23
2024-01-12T06:35:33.739Z,5.85
2024-01-12T06:36:16.306Z,7.13
2024-01-12T06:37:00.241Z,7.88
2024-01-12T06:37:46.600Z,5.88
2024-01-12T06:38:31.133Z,8.13
2024-01-12T06:39:13.844Z,5.30
2024-01-12T06:39:59.005Z,6.25
2024-01-12T06:40:41.505Z,5.28
2024-01-12T06:41:24.053Z,10.10
2024-01-12T06:42:07.892Z,6.70
2024-01-12T06:42:51.003Z,7.50
2024-01-12T06:43:33.634Z,7.63
2024-01-12T06:44:17.341Z,7.82
2024-01-12T06:45:01.074Z,9.35
2024-01-12T06:45:43.812Z,7.80
2024-01-12T06:46:29.841Z,8.38
2024-01-12T06:47:12.349Z,5.88
2024-01-12T06:47:54.965Z,6.00
2024-01-12T06:48:38.666Z,5.97
2024-01-12T06:49:21.177Z,6.55
2024-01-12T06:50:03.958Z,5.45
2024-01-12T06:50:47.443Z,5.72
2024-01-12T06:51:29.913Z,6.97
2024-01-12T06:52:12.433Z,7.60
2024-01-12T06:52:57.899Z,8.23
2024-01-12T06:53:41.830Z,5.60
2024-01-12T06:54:24.847Z,6.45
2024-01-12T06:55:08.905Z,7.32
2024-01-12T06:55:51.422Z,7.72
2024-01-12T06:56:38.318Z,5.97
2024-01-12T06:57:21.928Z,9.52
2024-01-12T06:58:04.912Z,8.23
2024-01-12T06:58:47.382Z,9.40
2024-01-12T06:59:30.950Z,7.03
2024-01-12T07:00:14.492Z,5.80
2024-01-12T07:00:57.654Z,10.90
2024-01-12T07:01:41.340Z,7.88
2024-01-12T07:02:23.852Z,6.70
2024-01-12T07:03:07.432Z,7.13
2024-01-12T07:03:52.570Z,8.50
2024-01-12T07:04:35.230Z,6.95
2024-01-12T07:05:18.821Z,6.57
2024-01-12T07:06:01.950Z,7.53
2024-01-12T07:06:44.619Z,6.85
2024-01-12T07:07:28.090Z,7.43
2024-01-12T07:08:10.530Z,5.90
2024-01-12T07:08:54.549Z,5.10
2024-01-12T07:09:38.096Z,6.88
2024-01-12T07:10:23.010Z,4.18
2024-01-12T07:11:08.039Z,3.80
2024-01-12T07:11:51.574Z,8.18
2024-01-12T07:12:34.102Z,5.18
2024-01-12T07:13:16.561Z,6.30
2024-01-12T07:14:00.219Z,6.28
2024-01-12T07:14:42.702Z,4.65
2024-01-12T07:15:25.241Z,7.85
2024-01-12T07:16:09.782Z,5.93
2024-01-12T07:16:55.053Z,5.32
2024-01-12T07:17:37.700Z,6.65
2024-01-12T07:18:21.309Z,6.10
2024-01-12T07:19:04.094Z,7.72
2024-01-12T07:19:47.017Z,3.08
2024-01-12T07:20:30.853Z,6.47
2024-01-12T07:21:13.448Z,6.55
2024-01-12T07:21:56.014Z,6.45
2024-01-12T07:22:39.477Z,7.30
2024-01-12T07:23:24.503Z,7.55
2024-01-12T07:24:08.521Z,4.43
2024-01-12T07:24:52.019Z,10.43
2024-01-12T07:25:35.128Z,7.10
2024-01-12T07:26:17.900Z,4.82
2024-01-12T07:27:01.526Z,6.75
2024-01-12T07:27:46.330Z,6.88
2024-01-12T07:28:29.680Z,9.07
2024-01-12T07:29:14.509Z,5.75
2024-01-12T07:29:57.050Z,4.13
2024-01-12T07:30:39.671Z,6.22
2024-01-12T07:31:23.241Z,5.57
2024-01-12T07:32:06.501Z,4.60
2024-01-12T07:32:53.557Z,5.32
2024-01-12T07:33:47.401Z,4.03
2024-01-12T07:34:31.058Z,4.82
2024-01-12T07:35:13.784Z,5.70
2024-01-12T07:35:57.683Z,5.70
2024-01-12T07:36:40.190Z,5.20
2024-01-12T07:37:22.630Z,5.20
2024-01-12T07:38:05.217Z,6.15
2024-01-12T07:38:48.739Z,5.20
2024-01-12T07:39:33.528Z,7.72
2024-01-12T07:40:16.183Z,4.25
2024-01-12T07:40:59.949Z,7.88
2024-01-12T07:41:43.688Z,5.03
2024-01-12T07:42:27.213Z,4.70
2024-01-12T07:43:09.675Z,6.85
2024-01-12T07:43:56.693Z,5.72
2024-01-12T07:44:40.966Z,3.95
2024-01-12T07:45:23.533Z,8.10
2024-01-12T07:46:08.270Z,5.93
2024-01-12T07:46:51.055Z,4.30
2024-01-12T07:47:34.697Z,4.88
2024-01-12T07:48:17.405Z,4.47
2024-01-12T07:49:01.016Z,6.45
2024-01-12T07:49:44.724Z,6.38
2024-01-12T07:50:33.050Z,4.55
2024-01-12T07:51:16.883Z,6.93
2024-01-12T07:52:11.475Z,6.82
2024-01-12T07:52:55.305Z,6.72
2024-01-12T07:53:37.835Z,3.45
2024-01-12T07:54:21.354Z,7.95
2024-01-12T07:55:06.864Z,6.38
2024-01-12T07:55:50.792Z,8.13
2024-01-12T07:56:36.963Z,6.38
2024-01-12T07:57:19.462Z,6.43
2024-01-12T07:58:02.989Z,4.43
2024-01-12T07:58:45.476Z,4.57
2024-01-12T07:59:28.087Z,6.97
2024-01-12T08:00:12.653Z,5.13
2024-01-12T08:00:55.302Z,6.28
2024-01-12T08:01:41.960Z,6.70
2024-01-12T08:02:24.752Z,6.07
2024-01-12T08:03:07.404Z,8.65
2024-01-12T08:03:51.791Z,5.60
2024-01-12T08:04:34.307Z,6.90
2024-01-12T08:05:16.990Z,5.55
2024-01-12T08:06:00.827Z,7.30
2024-01-12T08:06:52.280Z,8.68
2024-01-12T08:07:45.169Z,6.07
2024-01-12T08:08:28.638Z,6.90
2024-01-12T08:09:11.454Z,6.05
2024-01-12T08:09:54.035Z,6.60
2024-01-12T08:10:38.893Z,5.88
2024-01-12T08:11:27.454Z,4.85
2024-01-12T08:12:21.010Z,5.38
2024-01-12T08:13:05.224Z,7.57
2024-01-12T08:13:48.097Z,4.32
2024-01-12T08:15:06.130Z,6.38
2024-01-12T08:15:48.746Z,4.85
2024-01-12T08:16:32.395Z,6.00
2024-01-12T08:17:15.882Z,3.70
2024-01-12T08:17:58.839Z,4.03
2024-01-12T08:18:41.438Z,4.07
2024-01-12T08:19:24.935Z,3.35
2024-01-12T08:20:08.703Z,4.85
2024-01-12T08:20:51.492Z,5.07
2024-01-12T08:21:44.887Z,4.13
2024-01-12T08:22:33.282Z,4.80
2024-01-12T08:23:16.612Z,6.47
2024-01-12T08:24:00.180Z,4.88
2024-01-12T08:24:43.351Z,4.22
2024-01-12T08:25:25.799Z,8.13
2024-01-12T08:26:10.647Z,4.75
2024-01-12T08:26:53.250Z,3.95
2024-01-12T08:27:35.792Z,4.43
2024-01-12T08:28:19.494Z,4.78
2024-01-12T08:29:02.900Z,4.45
2024-01-12T08:29:45.615Z,5.03
2024-01-12T08:30:29.322Z,3.97
2024-01-12T08:31:14.545Z,4.40
2024-01-12T08:31:57.051Z,6.05
2024-01-12T08:32:43.045Z,4.55
2024-01-12T08:33:28.039Z,5.45
2024-01-12T08:34:11.027Z,4.57
2024-01-12T08:34:54.781Z,5.40
2024-01-12T08:35:37.410Z,3.95
2024-01-12T08:36:19.918Z,3.47
2024-01-12T08:37:03.505Z,6.20
2024-01-12T08:37:46.000Z,5.97
2024-01-12T08:38:29.267Z,8.18
2024-01-12T08:39:17.526Z,3.70
2024-01-12T08:40:00.081Z,4.28
2024-01-12T08:40:42.686Z,5.53
2024-01-12T08:41:27.582Z,7.82
2024-01-12T08:42:10.138Z,4.55
2024-01-12T08:42:52.703Z,5.72
2024-01-12T08:43:38.041Z,5.55
2024-01-12T08:44:21.827Z,4.28
2024-01-12T08:45:04.939Z,5.63
2024-01-12T08:45:48.648Z,4.40
2024-01-12T08:46:31.100Z,5.85
2024-01-12T08:47:13.622Z,7.30
2024-01-12T08:47:59.394Z,5.68
2024-01-12T08:49:25.916Z,13.05
2024-01-12T08:50:10.243Z,7.20
2024-01-12T08:50:53.071Z,5.90
2024-01-12T08:51:35.662Z,6.80
2024-01-12T08:52:19.305Z,6.40
2024-01-12T08:53:01.788Z,6.03
2024-01-12T08:53:44.496Z,4.97
2024-01-12T08:54:28.026Z,6.03
2024-01-12T08:55:11.138Z,5.63
2024-01-12T08:55:53.734Z,4.97
2024-01-12T08:56:38.605Z,4.88
2024-01-12T08:57:21.059Z,6.78
2024-01-12T08:58:03.834Z,4.88
2024-01-12T08:58:47.307Z,4.97
2024-01-12T08:59:29.898Z,5.57
2024-01-12T09:00:14.959Z,4.35
2024-01-12T09:00:57.420Z,6.30
2024-01-12T09:01:39.917Z,5.28
2024-01-12T09:02:23.632Z,6.88
2024-01-12T09:03:06.532Z,4.15
2024-01-12T09:03:51.643Z,6.32
2024-01-12T09:04:37.788Z,4.38
2024-01-12T09:05:21.620Z,4.85
2024-01-12T09:06:04.445Z,5.55
2024-01-12T09:06:48.102Z,3.67
2024-01-12T09:07:30.750Z,5.78
2024-01-12T09:08:13.576Z,2.95
2024-01-12T09:09:00.310Z,5.40
2024-01-12T09:09:46.079Z,3.25
2024-01-12T09:10:28.648Z,3.85
2024-01-12T09:11:14.327Z,5.90
2024-01-12T09:11:58.225Z,5.63
2024-01-12T09:12:40.687Z,5.18
2024-01-12T09:13:37.079Z,5.88
2024-01-12T09:14:22.275Z,6.70
2024-01-12T09:15:09.362Z,3.75
2024-01-12T09:15:52.921Z,5.22
2024-01-12T09:16:35.436Z,5.07
2024-01-12T09:17:18.033Z,7.25
2024-01-12T09:18:02.433Z,5.70
2024-01-12T09:18:45.668Z,5.60
2024-01-12T09:19:28.446Z,5.03
2024-01-12T09:20:15.547Z,4.32
2024-01-12T09:20:58.052Z,7.10
2024-01-12T09:21:40.524Z,4.88
2024-01-12T09:22:23.960Z,8.65
2024-01-12T09:23:06.849Z,4.03
2024-01-12T09:23:49.387Z,5.80
2024-01-12T09:24:32.889Z,4.70
2024-01-12T09:25:15.899Z,6.38
2024-01-12T09:25:58.391Z,5.82
2024-01-12T09:26:41.953Z,6.80
2024-01-12T09:27:25.856Z,4.60
2024-01-12T09:28:08.818Z,6.13
2024-01-12T09:28:52.259Z,6.35
2024-01-12T09:29:34.787Z,3.97
2024-01-12T09:30:17.661Z,5.45
2024-01-12T09:31:00.248Z,5.85
2024-01-12T09:31:43.750Z,5.22
2024-01-12T09:32:26.315Z,3.72
2024-01-12T09:33:09.017Z,5.32
2024-01-12T09:33:54.970Z,4.60
2024-01-12T09:34:37.795Z,5.20
2024-01-12T09:35:20.320Z,6.82
2024-01-12T09:36:04.615Z,7.70